Pagrindinis puslapis
METAR-TAF:

METAR-TAF

Oro uostai :

Upsala, Švedija

platuma: 59-53N, ilguma: 017-36E, Aukštis: 21 m

Dabartinis oras

Ataskaita buvo paskelbta 33 minutes, ne 05:20 UTC
Vėjas 7 kt iš Pietų/Pietvakarių
Temperatūra 14°C
Drėgmė 94%
Slėgis 1013 hPa
Matomumas 10 km arba daugiau

METAR: ESCM 200520Z AUTO 21007KT 9999 NCD 14/13 Q1013

Laikas: 07:53 (05:53 UTC)

Prognozė

Ataskaita buvo paskelbta 18 valandos ir 13 minutes, ne 11:40 UTC
Prognozė galioja nuo 19 metu 12 UTC su 19 metu 14 UTC
Vėjas 12 kt iš Vakarų/Pietvakarių su gūsio iki 22 kt
Matomumas 10 km arba daugiau
Išsisklaidę debesys ne aukštis 3000 ft

TAF: ESCM 191140Z 1912/1914 24012G22KT 9999 SCT030 RMK MIL

Orai ataskaitas ir orų prognozės (METAR, TAF).

turimą stotys yra geltonos ir raudonos taškus žemėlapyje.

Perkelti pele per norėdami pamatyti stoties vardą.

Tada spustelėkite, norėdami matyti oro stebėjimo ir prognozės.

Norėdami pakeisti žemėlapį: spustelėkite ant žalios mygtukų su juodo kryžiaus žemyn,; žalią mygtuką su brūkšneliu, jei norite nutolinti; arba žalių rodyklių gretimoms žemėlapius.


METAR-TAF: